createdAt,value
2022-08-21T00:00:24.661Z,40.33
2022-08-21T00:02:58.245Z,37.08
2022-08-21T00:05:26.312Z,45.30
2022-08-21T00:07:52.860Z,38.63
2022-08-21T00:10:20.192Z,32.10
2022-08-21T00:12:47.608Z,35.83
2022-08-21T00:15:20.968Z,43.28
2022-08-21T00:17:47.707Z,34.47
2022-08-21T00:20:16.764Z,37.35
2022-08-21T00:22:43.676Z,31.90
2022-08-21T00:25:12.280Z,35.20
2022-08-21T00:27:39.339Z,40.10
2022-08-21T00:30:07.767Z,34.60
2022-08-21T00:32:35.004Z,37.85
2022-08-21T00:35:01.558Z,40.78
2022-08-21T00:37:28.253Z,40.20
2022-08-21T00:39:57.501Z,39.92
2022-08-21T00:42:24.208Z,40.90
2022-08-21T00:44:51.553Z,41.17
2022-08-21T00:47:19.691Z,36.60
2022-08-21T00:49:46.417Z,39.22
2022-08-21T00:52:20.493Z,38.35
2022-08-21T00:54:49.540Z,41.28
2022-08-21T00:57:32.671Z,34.47
2022-08-21T01:00:02.172Z,34.88
2022-08-21T01:02:28.912Z,31.10
2022-08-21T01:04:58.308Z,33.25
2022-08-21T01:07:27.800Z,37.70
2022-08-21T01:09:54.557Z,30.40
2022-08-21T01:12:21.137Z,34.78
2022-08-21T01:14:47.803Z,36.67
2022-08-21T01:17:16.519Z,31.30
2022-08-21T01:19:43.432Z,35.22
2022-08-21T01:22:10.832Z,29.30
2022-08-21T01:24:37.515Z,29.05
2022-08-21T01:27:04.480Z,34.97
2022-08-21T01:29:31.584Z,40.47
2022-08-21T01:32:00.107Z,47.83
2022-08-21T01:34:26.858Z,41.42
2022-08-21T01:36:53.448Z,54.78
2022-08-21T01:39:20.593Z,46.70
2022-08-21T01:41:47.273Z,50.45
2022-08-21T01:44:13.915Z,54.00
2022-08-21T01:46:40.670Z,46.17
2022-08-21T01:49:07.452Z,43.75
2022-08-21T01:51:34.185Z,53.42
2022-08-21T01:54:01.123Z,54.03
2022-08-21T01:56:28.907Z,61.85
2022-08-21T01:58:55.808Z,53.70
2022-08-21T02:01:22.460Z,54.92
2022-08-21T02:03:49.157Z,54.72
2022-08-21T02:06:18.691Z,60.45
2022-08-21T02:08:46.543Z,65.05
2022-08-21T02:11:13.601Z,58.97
2022-08-21T02:13:40.660Z,58.28
2022-08-21T02:16:08.927Z,58.95
2022-08-21T02:18:36.030Z,55.78
2022-08-21T02:21:03.120Z,54.55
2022-08-21T02:23:29.732Z,55.10
2022-08-21T02:25:59.539Z,50.03
2022-08-21T02:30:57.379Z,64.70
2022-08-21T02:33:24.741Z,58.65
2022-08-21T02:35:51.542Z,57.47
2022-08-21T02:38:27.238Z,62.28
2022-08-21T02:40:55.281Z,63.88
2022-08-21T02:43:24.427Z,63.00
2022-08-21T02:45:52.872Z,56.97
2022-08-21T02:48:22.324Z,50.85
2022-08-21T02:50:57.241Z,50.72
2022-08-21T02:53:24.699Z,50.58
2022-08-21T02:55:52.984Z,44.58
2022-08-21T02:58:26.963Z,47.35
2022-08-21T03:00:54.253Z,46.25
2022-08-21T03:03:22.022Z,45.78
2022-08-21T03:08:10.444Z,37.80
2022-08-21T03:10:43.227Z,39.72
2022-08-21T03:13:10.932Z,48.38
2022-08-21T03:17:57.384Z,49.28
2022-08-21T03:20:26.348Z,77.65
2022-08-21T03:22:54.322Z,77.38
2022-08-21T03:25:28.330Z,74.85
2022-08-21T03:28:12.871Z,72.20
2022-08-21T03:30:44.840Z,75.55
2022-08-21T03:33:12.985Z,78.95
2022-08-21T03:35:46.710Z,82.20
2022-08-21T03:38:14.028Z,74.63
2022-08-21T03:40:42.457Z,77.70
2022-08-21T03:43:10.460Z,71.25
2022-08-21T03:45:37.539Z,81.70
2022-08-21T03:48:05.709Z,83.85
2022-08-21T03:50:35.269Z,81.00
2022-08-21T03:53:08.792Z,80.07
2022-08-21T03:55:46.690Z,84.95
2022-08-21T03:58:16.272Z,84.20
2022-08-21T04:00:44.885Z,87.05
2022-08-21T04:03:11.443Z,85.22
2022-08-21T04:05:38.488Z,60.78
2022-08-21T04:08:06.695Z,62.97
2022-08-21T04:10:36.556Z,64.32
2022-08-21T04:13:04.630Z,65.57
2022-08-21T04:15:31.219Z,56.00
2022-08-21T04:17:57.909Z,65.93
2022-08-21T04:20:25.240Z,60.80
2022-08-21T04:22:52.958Z,70.10
2022-08-21T04:25:22.260Z,66.50
2022-08-21T04:27:49.165Z,68.63
2022-08-21T04:30:17.545Z,72.40
2022-08-21T04:32:50.024Z,74.72
2022-08-21T04:35:20.483Z,85.05
2022-08-21T04:37:47.551Z,79.07
2022-08-21T04:40:16.888Z,97.05
2022-08-21T04:42:47.347Z,87.32
2022-08-21T04:49:50.554Z,89.53
2022-08-21T04:52:21.197Z,85.97
2022-08-21T04:54:51.039Z,89.30
2022-08-21T04:57:21.137Z,89.70
2022-08-21T04:59:51.628Z,85.70
2022-08-21T05:02:19.093Z,83.53
2022-08-21T05:04:52.240Z,87.22
2022-08-21T05:07:42.821Z,88.47
2022-08-21T05:10:10.323Z,89.25
2022-08-21T05:12:39.463Z,86.20
2022-08-21T05:15:06.400Z,80.88
2022-08-21T05:17:35.687Z,86.53
2022-08-21T05:20:02.858Z,94.35
2022-08-21T05:22:29.393Z,90.88
2022-08-21T05:24:56.074Z,82.07
2022-08-21T05:29:50.716Z,74.47
2022-08-21T05:32:17.431Z,82.25
2022-08-21T05:34:44.023Z,82.80
2022-08-21T05:37:13.452Z,78.75
2022-08-21T05:40:21.167Z,82.80
2022-08-21T05:42:27.135Z,79.28
2022-08-21T05:44:53.706Z,75.15
2022-08-21T05:47:20.572Z,67.20
2022-08-21T05:49:47.109Z,76.75
2022-08-21T05:52:20.293Z,67.88
2022-08-21T05:54:46.903Z,75.03
2022-08-21T05:57:13.644Z,70.15
2022-08-21T05:59:40.611Z,70.82
2022-08-21T06:02:09.016Z,66.95
2022-08-21T06:04:40.063Z,67.47
2022-08-21T06:07:07.788Z,59.63
2022-08-21T06:09:34.579Z,59.30
2022-08-21T06:12:10.000Z,66.03
2022-08-21T06:14:38.821Z,55.97
2022-08-21T06:17:06.655Z,60.53
2022-08-21T06:19:33.907Z,54.25
2022-08-21T06:22:00.576Z,52.38
2022-08-21T06:24:27.625Z,48.10
2022-08-21T06:26:54.469Z,52.20
2022-08-21T06:29:21.859Z,49.67
2022-08-21T06:31:50.341Z,50.78
2022-08-21T06:34:17.336Z,55.28
2022-08-21T06:36:43.877Z,55.88
2022-08-21T06:39:16.666Z,45.47
2022-08-21T06:41:52.116Z,55.67
2022-08-21T06:44:22.189Z,48.80
2022-08-21T06:46:49.208Z,41.00
2022-08-21T06:49:21.453Z,46.53
2022-08-21T06:51:48.480Z,45.00
2022-08-21T06:54:15.244Z,42.05
2022-08-21T06:56:42.019Z,47.00
2022-08-21T06:59:08.571Z,51.80
2022-08-21T07:01:35.240Z,40.60
2022-08-21T07:04:01.843Z,48.47
2022-08-21T07:06:28.615Z,44.05
2022-08-21T07:08:58.857Z,43.95
2022-08-21T07:11:38.479Z,40.85
2022-08-21T07:14:20.039Z,40.72
2022-08-21T07:16:48.059Z,44.88
2022-08-21T07:19:14.757Z,43.08
2022-08-21T07:21:41.566Z,40.10
2022-08-21T07:24:08.311Z,48.58
2022-08-21T07:26:34.855Z,40.53
2022-08-21T07:29:01.661Z,43.17
2022-08-21T07:31:28.909Z,46.00
2022-08-21T07:33:56.000Z,45.72
2022-08-21T07:36:22.923Z,45.72
2022-08-21T07:38:52.558Z,42.75
2022-08-21T07:41:22.822Z,43.85
2022-08-21T07:43:49.508Z,39.17
2022-08-21T07:46:20.557Z,41.80
2022-08-21T07:48:47.780Z,44.25
2022-08-21T07:51:17.221Z,46.35
2022-08-21T07:53:52.120Z,41.03
2022-08-21T07:56:19.484Z,43.38
2022-08-21T07:58:46.257Z,42.20
2022-08-21T08:01:13.286Z,43.20
2022-08-21T08:03:40.173Z,43.45
2022-08-21T08:06:12.279Z,54.60
2022-08-21T08:08:42.764Z,44.72
2022-08-21T08:11:16.209Z,38.92
2022-08-21T08:13:46.679Z,41.72
2022-08-21T08:16:13.727Z,39.67
2022-08-21T08:18:43.225Z,36.58
2022-08-21T08:21:11.498Z,43.55
2022-08-21T08:23:38.756Z,42.05
2022-08-21T08:26:05.789Z,38.88
2022-08-21T08:28:34.104Z,40.33
2022-08-21T08:31:02.063Z,41.90
2022-08-21T08:33:29.105Z,41.58
2022-08-21T08:35:56.281Z,44.08
2022-08-21T08:38:25.046Z,46.38
2022-08-21T08:40:56.309Z,42.22
2022-08-21T08:43:23.430Z,43.33
2022-08-21T08:45:54.367Z,40.10
2022-08-21T08:48:41.932Z,46.58
2022-08-21T08:51:17.605Z,46.97
2022-08-21T08:54:03.795Z,39.92
2022-08-21T08:56:33.325Z,46.28
2022-08-21T08:59:08.311Z,43.05
2022-08-21T09:01:38.747Z,44.50
2022-08-21T09:04:06.497Z,38.95
2022-08-21T09:06:43.184Z,47.58
2022-08-21T09:09:24.606Z,46.30
2022-08-21T09:12:07.124Z,52.65
2022-08-21T09:14:55.275Z,49.03
2022-08-21T09:17:34.504Z,42.05
2022-08-21T09:20:28.565Z,50.75
2022-08-21T09:23:15.424Z,49.22
2022-08-21T09:25:55.208Z,43.35
2022-08-21T09:28:21.835Z,48.63
2022-08-21T09:30:48.837Z,43.50
2022-08-21T09:33:16.950Z,45.55
2022-08-21T09:35:53.118Z,45.92
2022-08-21T09:38:27.495Z,50.00
2022-08-21T09:41:01.064Z,46.88
2022-08-21T09:43:27.824Z,49.47
2022-08-21T09:46:31.695Z,54.72
2022-08-21T09:49:02.297Z,41.25
2022-08-21T09:51:38.251Z,43.35
2022-08-21T09:54:07.791Z,41.63
2022-08-21T09:57:12.651Z,39.80
2022-08-21T09:59:39.752Z,47.25
2022-08-21T10:02:29.088Z,47.70
2022-08-21T10:05:03.965Z,46.20
2022-08-21T10:07:33.346Z,52.35
2022-08-21T10:10:07.439Z,54.53
2022-08-21T10:15:13.345Z,46.67
2022-08-21T10:18:04.369Z,47.15
2022-08-21T10:20:51.492Z,44.87
2022-08-21T10:23:42.300Z,46.17
2022-08-21T10:26:18.869Z,39.67
2022-08-21T10:29:02.779Z,44.47
2022-08-21T10:31:46.273Z,51.10
2022-08-21T10:34:12.854Z,44.38
2022-08-21T10:37:04.184Z,45.65
2022-08-21T10:39:38.158Z,47.45
2022-08-21T10:42:27.925Z,43.47
2022-08-21T10:45:16.640Z,45.55
2022-08-21T10:47:43.177Z,48.80
2022-08-21T10:50:44.420Z,44.65
2022-08-21T10:53:23.129Z,44.03
2022-08-21T10:56:11.613Z,41.22
2022-08-21T10:59:01.708Z,38.10
2022-08-21T11:01:50.967Z,42.53
2022-08-21T11:04:22.861Z,40.60
2022-08-21T11:07:05.479Z,34.13
2022-08-21T11:09:36.149Z,31.83
2022-08-21T11:12:19.071Z,38.20
2022-08-21T11:14:53.837Z,35.40
2022-08-21T11:17:28.567Z,35.33
2022-08-21T11:20:04.830Z,25.77
2022-08-21T11:22:55.044Z,26.88
2022-08-21T11:25:36.948Z,21.05
2022-08-21T11:28:14.233Z,20.70
2022-08-21T11:31:12.668Z,21.95
2022-08-21T11:33:45.425Z,17.52
2022-08-21T11:36:18.127Z,17.92
2022-08-21T11:38:58.124Z,16.67
2022-08-21T11:41:31.094Z,16.17
2022-08-21T11:44:19.309Z,15.10
2022-08-21T11:49:59.120Z,18.15
2022-08-21T11:52:44.537Z,22.20
2022-08-21T11:55:11.077Z,16.58
2022-08-21T12:00:08.984Z,15.15
2022-08-21T12:02:51.832Z,14.32
2022-08-21T12:05:37.218Z,12.25
2022-08-21T12:08:14.040Z,12.48
2022-08-21T12:10:48.024Z,12.95
2022-08-21T12:13:40.726Z,12.68
2022-08-21T12:16:15.689Z,13.55
2022-08-21T12:18:43.730Z,9.30
2022-08-21T12:21:28.561Z,7.50
2022-08-21T12:24:04.901Z,9.85
2022-08-21T12:26:49.347Z,8.35
2022-08-21T12:29:38.553Z,8.85
2022-08-21T12:32:27.053Z,11.52
2022-08-21T12:35:08.061Z,7.10
2022-08-21T12:37:46.810Z,5.60
2022-08-21T12:40:22.739Z,8.23
2022-08-21T12:42:58.734Z,11.57
2022-08-21T12:45:42.916Z,5.13
2022-08-21T12:48:25.198Z,8.57
2022-08-21T12:50:58.265Z,6.18
2022-08-21T12:53:42.647Z,8.32
2022-08-21T12:56:12.993Z,6.30
2022-08-21T12:58:46.195Z,6.05
2022-08-21T13:01:24.598Z,7.53
2022-08-21T13:03:58.855Z,7.38
2022-08-21T13:06:37.905Z,7.50
2022-08-21T13:09:11.196Z,9.48
2022-08-21T13:11:40.943Z,5.70
2022-08-21T13:16:40.730Z,7.15
2022-08-21T13:19:12.424Z,8.40
2022-08-21T13:24:40.697Z,8.18
2022-08-21T13:27:03.444Z,10.30
2022-08-21T13:29:35.439Z,9.68
2022-08-21T13:32:07.933Z,8.57
2022-08-21T13:34:38.134Z,5.63
2022-08-21T13:37:08.691Z,6.07
2022-08-21T13:39:35.594Z,5.32
2022-08-21T13:42:06.097Z,6.53
2022-08-21T13:44:48.153Z,4.45
2022-08-21T13:47:16.865Z,4.45
2022-08-21T13:49:47.572Z,4.90
2022-08-21T13:52:21.318Z,4.50
2022-08-21T13:55:12.603Z,4.68
2022-08-21T13:57:39.264Z,3.25
2022-08-21T14:00:36.166Z,4.43
2022-08-21T14:03:11.836Z,4.80
2022-08-21T14:05:45.605Z,5.80
2022-08-21T14:08:30.279Z,6.07
2022-08-21T14:10:58.495Z,7.68
2022-08-21T14:13:43.549Z,6.72
2022-08-21T14:16:12.517Z,5.90
2022-08-21T14:19:07.236Z,8.10
2022-08-21T14:21:37.915Z,7.68
2022-08-21T14:24:14.749Z,5.72
2022-08-21T14:26:53.942Z,4.93
2022-08-21T14:29:23.652Z,7.47
2022-08-21T14:31:53.286Z,6.78
2022-08-21T14:34:20.183Z,5.18
2022-08-21T14:36:48.068Z,8.75
2022-08-21T14:39:16.455Z,8.52
2022-08-21T14:41:43.841Z,6.28
2022-08-21T14:44:10.547Z,6.30
2022-08-21T14:46:48.721Z,8.40
2022-08-21T14:49:22.502Z,7.80
2022-08-21T14:51:54.706Z,6.78
2022-08-21T14:54:28.040Z,6.70
2022-08-21T14:56:59.741Z,6.82
2022-08-21T14:59:26.778Z,8.77
2022-08-21T15:01:54.133Z,7.88
2022-08-21T15:04:20.853Z,8.63
2022-08-21T15:06:47.464Z,9.45
2022-08-21T15:09:13.992Z,10.02
2022-08-21T15:11:42.574Z,13.93
2022-08-21T15:14:13.556Z,12.45
2022-08-21T15:16:40.161Z,11.70
2022-08-21T15:19:06.719Z,13.18
2022-08-21T15:21:33.355Z,14.82
2022-08-21T15:24:00.119Z,11.07
2022-08-21T15:26:26.789Z,13.68
2022-08-21T15:28:53.484Z,11.55
2022-08-21T15:31:20.092Z,14.30
2022-08-21T15:33:46.763Z,11.18
2022-08-21T15:36:13.368Z,12.63
2022-08-21T15:38:40.008Z,11.80
2022-08-21T15:41:07.327Z,11.95
2022-08-21T15:43:47.065Z,11.75
2022-08-21T15:46:16.100Z,16.23
2022-08-21T15:48:42.943Z,13.90
2022-08-21T15:51:11.627Z,14.77
2022-08-21T15:53:40.862Z,14.07
2022-08-21T15:56:18.736Z,17.75
2022-08-21T15:58:45.365Z,22.13
2022-08-21T16:01:11.978Z,20.08
2022-08-21T16:03:39.679Z,24.20
2022-08-21T16:06:06.471Z,26.20
2022-08-21T16:08:33.101Z,30.83
2022-08-21T16:11:01.228Z,27.83
2022-08-21T16:13:33.361Z,30.13
2022-08-21T16:16:00.138Z,29.35
2022-08-21T16:18:27.469Z,30.08
2022-08-21T16:20:54.268Z,36.00
2022-08-21T16:23:20.776Z,32.55
2022-08-21T16:25:47.972Z,27.08
2022-08-21T16:28:17.296Z,32.28
2022-08-21T16:30:47.468Z,36.55
2022-08-21T16:33:35.151Z,27.25
2022-08-21T16:36:05.004Z,29.83
2022-08-21T16:38:36.769Z,27.95
2022-08-21T16:41:07.776Z,23.77
2022-08-21T16:43:35.172Z,24.85
2022-08-21T16:46:02.696Z,22.02
2022-08-21T16:48:31.899Z,23.48
2022-08-21T16:50:59.184Z,18.52
2022-08-21T16:53:26.441Z,23.85
2022-08-21T16:55:53.742Z,26.02
2022-08-21T16:58:30.486Z,18.02
2022-08-21T17:00:58.887Z,19.27
2022-08-21T17:03:34.936Z,20.15
2022-08-21T17:06:01.995Z,18.70
2022-08-21T17:08:28.671Z,22.33
2022-08-21T17:10:56.006Z,24.13
2022-08-21T17:13:23.060Z,29.10
2022-08-21T17:15:49.813Z,30.42
2022-08-21T17:18:19.479Z,22.05
2022-08-21T17:20:47.619Z,20.13
2022-08-21T17:23:15.325Z,26.23
2022-08-21T17:25:44.993Z,27.35
2022-08-21T17:28:15.597Z,41.70
2022-08-21T17:30:46.072Z,36.60
2022-08-21T17:33:15.116Z,30.10
2022-08-21T17:35:42.364Z,26.38
2022-08-21T17:38:10.441Z,31.48
2022-08-21T17:40:42.508Z,23.52
2022-08-21T17:43:13.232Z,18.42
2022-08-21T17:45:40.341Z,16.15
2022-08-21T17:48:07.538Z,13.93
2022-08-21T17:50:34.794Z,15.75
2022-08-21T17:53:01.541Z,12.68
2022-08-21T17:55:31.226Z,15.43
2022-08-21T17:57:58.611Z,18.67
2022-08-21T18:00:26.300Z,9.95
2022-08-21T18:03:15.846Z,12.73
2022-08-21T18:05:44.782Z,15.80
2022-08-21T18:08:11.553Z,15.63
2022-08-21T18:10:41.231Z,23.92
2022-08-21T18:13:10.568Z,14.82
2022-08-21T18:15:37.234Z,10.50
2022-08-21T18:18:05.881Z,9.48
2022-08-21T18:20:32.646Z,8.80
2022-08-21T18:23:07.749Z,11.00
2022-08-21T18:25:40.351Z,8.07
2022-08-21T18:28:15.461Z,12.25
2022-08-21T18:30:59.502Z,10.00
2022-08-21T18:33:57.827Z,7.60
2022-08-21T18:36:27.965Z,6.88
2022-08-21T18:39:08.685Z,6.47
2022-08-21T18:41:45.014Z,8.60
2022-08-21T18:44:14.750Z,4.80
2022-08-21T18:46:45.220Z,3.60
2022-08-21T18:49:11.840Z,5.53
2022-08-21T18:51:40.077Z,5.78
2022-08-21T18:54:13.044Z,4.90
2022-08-21T18:56:40.940Z,6.30
2022-08-21T18:59:08.337Z,6.40
2022-08-21T19:01:36.258Z,6.75
2022-08-21T19:04:07.640Z,5.47
2022-08-21T19:06:36.495Z,12.15
2022-08-21T19:09:07.271Z,12.75
2022-08-21T19:11:35.228Z,9.88
2022-08-21T19:14:04.989Z,6.05
2022-08-21T19:16:35.647Z,6.25
2022-08-21T19:19:03.775Z,4.32
2022-08-21T19:21:31.840Z,9.95
2022-08-21T19:23:59.133Z,8.88
2022-08-21T19:26:30.176Z,6.90
2022-08-21T19:29:02.014Z,4.70
2022-08-21T19:31:32.476Z,3.03
2022-08-21T19:34:16.810Z,5.28
2022-08-21T19:36:44.260Z,5.63
2022-08-21T19:39:12.015Z,4.60
2022-08-21T19:41:43.558Z,3.25
2022-08-21T19:44:19.454Z,4.68
2022-08-21T19:46:47.799Z,3.13
2022-08-21T19:49:21.403Z,2.40
2022-08-21T19:51:49.418Z,3.83
2022-08-21T19:54:32.408Z,3.10
2022-08-21T19:57:08.705Z,3.20
2022-08-21T19:59:36.867Z,2.95
2022-08-21T20:02:05.015Z,3.50
2022-08-21T20:04:33.114Z,3.17
2022-08-21T20:07:01.026Z,2.50
2022-08-21T20:09:27.813Z,3.20
2022-08-21T20:11:57.520Z,3.08
2022-08-21T20:14:30.497Z,2.22
2022-08-21T20:17:05.980Z,4.80
2022-08-21T20:19:35.702Z,5.65
2022-08-21T20:22:02.608Z,6.88
2022-08-21T20:24:29.937Z,6.90
2022-08-21T20:26:57.255Z,3.80
2022-08-21T20:29:29.268Z,3.42
2022-08-21T20:32:06.026Z,4.32
2022-08-21T20:34:33.205Z,3.70
2022-08-21T20:37:01.225Z,4.55
2022-08-21T20:39:28.680Z,3.67
2022-08-21T20:41:56.079Z,5.53
2022-08-21T20:44:27.503Z,3.05
2022-08-21T20:46:54.444Z,3.90
2022-08-21T20:49:28.109Z,3.17
2022-08-21T20:51:58.306Z,13.13
2022-08-21T20:54:30.852Z,2.20
2022-08-21T21:00:15.536Z,3.35
2022-08-21T21:03:10.629Z,2.17
2022-08-21T21:05:48.413Z,3.58
2022-08-21T21:08:25.337Z,1.30
2022-08-21T21:11:00.504Z,3.70
2022-08-21T21:13:30.526Z,4.00
2022-08-21T21:16:07.504Z,3.45
2022-08-21T21:18:43.317Z,3.28
2022-08-21T21:21:32.885Z,2.35
2022-08-21T21:24:09.544Z,2.17
2022-08-21T21:26:48.896Z,2.42
2022-08-21T21:29:29.835Z,1.20
2022-08-21T21:31:56.951Z,1.58
2022-08-21T21:34:26.669Z,3.20
2022-08-21T21:37:02.934Z,2.67
2022-08-21T21:39:53.304Z,2.13
2022-08-21T21:42:30.169Z,1.98
2022-08-21T21:45:27.672Z,3.72
2022-08-21T21:47:57.771Z,1.63
2022-08-21T21:50:33.579Z,2.05
2022-08-21T21:53:16.464Z,2.65
2022-08-21T21:55:46.029Z,1.88
2022-08-21T22:00:29.997Z,4.07
2022-08-21T22:02:56.971Z,2.05
2022-08-21T22:05:51.375Z,1.70
2022-08-21T22:08:21.867Z,2.92
2022-08-21T22:13:48.400Z,3.13
2022-08-21T22:16:15.308Z,4.05
2022-08-21T22:18:54.694Z,4.50
2022-08-21T22:21:33.401Z,6.72
2022-08-21T22:24:15.251Z,8.55
2022-08-21T22:29:16.684Z,6.78
2022-08-21T22:31:59.755Z,5.43
2022-08-21T22:34:28.716Z,7.47
2022-08-21T22:36:59.497Z,8.02
2022-08-21T22:39:28.361Z,9.32
2022-08-21T22:42:08.806Z,6.47
2022-08-21T22:44:49.175Z,8.07
2022-08-21T22:47:22.422Z,11.15
2022-08-21T22:49:53.967Z,10.93
2022-08-21T22:52:24.904Z,11.40
2022-08-21T22:54:57.609Z,12.70
2022-08-21T22:57:30.679Z,13.02
2022-08-21T23:00:00.649Z,15.45
2022-08-21T23:02:33.492Z,16.00
2022-08-21T23:05:19.014Z,18.20
2022-08-21T23:07:49.742Z,17.10
2022-08-21T23:10:42.007Z,17.80
2022-08-21T23:13:13.807Z,19.90
2022-08-21T23:16:02.843Z,17.23
2022-08-21T23:18:52.930Z,22.23
2022-08-21T23:21:19.536Z,20.27
2022-08-21T23:24:19.150Z,24.60
2022-08-21T23:27:23.436Z,20.40
2022-08-21T23:30:14.791Z,25.70
2022-08-21T23:33:22.825Z,24.25
2022-08-21T23:36:20.428Z,23.85
2022-08-21T23:39:22.086Z,19.30
2022-08-21T23:41:58.882Z,42.60
2022-08-21T23:44:29.054Z,25.45
2022-08-21T23:47:04.557Z,34.20
2022-08-21T23:49:47.066Z,28.38
2022-08-21T23:52:23.605Z,25.90
2022-08-21T23:54:59.312Z,26.35
2022-08-21T23:57:57.404Z,27.73
